createdAt,value
2023-11-10T00:02:15.534Z,1.00
2023-11-10T00:04:43.352Z,1.53
2023-11-10T00:07:10.943Z,1.23
2023-11-10T00:09:38.509Z,1.10
2023-11-10T00:12:06.177Z,1.60
2023-11-10T00:14:39.747Z,1.70
2023-11-10T00:17:11.101Z,1.40
2023-11-10T00:19:46.802Z,1.70
2023-11-10T00:22:14.279Z,1.80
2023-11-10T00:24:42.084Z,2.00
2023-11-10T00:27:11.328Z,1.67
2023-11-10T00:29:42.606Z,2.00
2023-11-10T00:32:10.625Z,1.87
2023-11-10T00:34:38.124Z,1.70
2023-11-10T00:37:05.845Z,1.87
2023-11-10T00:39:34.095Z,1.70
2023-11-10T00:42:01.637Z,1.70
2023-11-10T00:44:29.240Z,1.37
2023-11-10T00:46:56.708Z,1.60
2023-11-10T00:49:24.144Z,2.20
2023-11-10T00:51:51.625Z,1.53
2023-11-10T00:54:19.202Z,1.93
2023-11-10T00:56:46.820Z,1.80
2023-11-10T00:59:14.532Z,1.70
2023-11-10T01:01:43.705Z,1.60
2023-11-10T01:04:11.447Z,1.77
2023-11-10T01:06:39.431Z,1.50
2023-11-10T01:09:07.248Z,1.70
2023-11-10T01:11:34.809Z,2.00
2023-11-10T01:14:03.737Z,1.77
2023-11-10T01:16:31.331Z,1.50
2023-11-10T01:18:59.641Z,2.27
2023-11-10T01:21:27.232Z,1.60
2023-11-10T01:23:56.127Z,1.90
2023-11-10T01:26:26.121Z,2.03
2023-11-10T01:28:53.679Z,1.37
2023-11-10T01:31:21.169Z,1.63
2023-11-10T01:33:49.210Z,1.50
2023-11-10T01:36:17.015Z,1.83
2023-11-10T01:38:44.914Z,1.30
2023-11-10T01:41:13.460Z,1.50
2023-11-10T01:43:41.245Z,1.67
2023-11-10T01:46:08.843Z,1.67
2023-11-10T01:48:37.868Z,1.57
2023-11-10T01:51:05.969Z,1.53
2023-11-10T01:53:33.523Z,1.40
2023-11-10T01:56:01.316Z,1.30
2023-11-10T01:58:28.833Z,1.70
2023-11-10T02:00:56.347Z,1.17
2023-11-10T02:03:25.296Z,1.20
2023-11-10T02:05:52.929Z,1.47
2023-11-10T02:08:20.533Z,2.70
2023-11-10T02:10:47.966Z,1.60
2023-11-10T02:13:21.361Z,2.10
2023-11-10T02:15:49.124Z,1.30
2023-11-10T02:18:17.465Z,1.47
2023-11-10T02:20:45.085Z,1.47
2023-11-10T02:23:12.737Z,1.73
2023-11-10T02:25:41.548Z,2.37
2023-11-10T02:28:09.633Z,1.67
2023-11-10T02:30:37.135Z,1.80
2023-11-10T02:33:05.595Z,4.83
2023-11-10T02:35:33.297Z,2.13
2023-11-10T02:38:01.457Z,1.57
2023-11-10T02:40:28.909Z,1.30
2023-11-10T02:42:56.538Z,1.40
2023-11-10T02:45:24.073Z,1.90
2023-11-10T02:47:51.862Z,1.50
2023-11-10T02:50:21.579Z,1.27
2023-11-10T02:52:49.232Z,1.60
2023-11-10T02:55:16.785Z,1.73
2023-11-10T02:57:46.415Z,1.37
2023-11-10T03:00:14.163Z,1.40
2023-11-10T03:02:41.672Z,0.97
2023-11-10T03:05:09.246Z,1.30
2023-11-10T03:07:38.141Z,1.50
2023-11-10T03:10:09.914Z,1.60
2023-11-10T03:12:37.955Z,1.50
2023-11-10T03:15:05.728Z,1.57
2023-11-10T03:17:33.330Z,1.20
2023-11-10T03:20:00.883Z,1.30
2023-11-10T03:22:28.585Z,1.23
2023-11-10T03:24:56.127Z,1.27
2023-11-10T03:27:23.730Z,1.07
2023-11-10T03:29:51.895Z,1.37
2023-11-10T03:32:20.298Z,1.00
2023-11-10T03:34:48.190Z,1.57
2023-11-10T03:37:15.890Z,1.10
2023-11-10T03:39:43.470Z,1.17
2023-11-10T03:42:11.611Z,1.07
2023-11-10T03:44:39.191Z,0.90
2023-11-10T03:47:06.798Z,0.90
2023-11-10T03:49:35.398Z,1.10
2023-11-10T03:52:03.406Z,1.90
2023-11-10T03:54:32.079Z,0.77
2023-11-10T03:56:59.744Z,1.00
2023-11-10T03:59:27.575Z,1.10
2023-11-10T04:01:55.134Z,1.00
2023-11-10T04:04:22.666Z,1.37
2023-11-10T04:06:51.336Z,1.37
2023-11-10T04:09:19.349Z,1.73
2023-11-10T04:11:46.804Z,1.40
2023-11-10T04:14:14.503Z,1.93
2023-11-10T04:16:42.350Z,1.97
2023-11-10T04:19:10.725Z,1.87
2023-11-10T04:21:38.213Z,1.00
2023-11-10T04:24:06.007Z,1.03
2023-11-10T04:26:33.516Z,1.20
2023-11-10T04:29:00.969Z,1.23
2023-11-10T04:31:30.042Z,1.57
2023-11-10T04:33:57.684Z,0.70
2023-11-10T04:36:26.982Z,0.90
2023-11-10T04:38:54.747Z,0.90
2023-11-10T04:41:25.938Z,1.10
2023-11-10T04:43:53.483Z,1.00
2023-11-10T04:46:21.118Z,2.03
2023-11-10T04:48:48.818Z,1.30
2023-11-10T04:51:16.454Z,1.07
2023-11-10T04:53:43.985Z,1.37
2023-11-10T04:56:12.226Z,1.40
2023-11-10T04:58:39.869Z,1.53
2023-11-10T05:01:07.354Z,1.13
2023-11-10T05:03:34.925Z,1.00
2023-11-10T05:06:10.168Z,1.30
2023-11-10T05:08:38.928Z,1.13
2023-11-10T05:11:06.484Z,1.00
2023-11-10T05:13:34.466Z,1.47
2023-11-10T05:16:02.074Z,1.10
2023-11-10T05:21:00.377Z,1.03
2023-11-10T05:23:27.978Z,1.37
2023-11-10T05:25:55.536Z,0.90
2023-11-10T05:28:23.068Z,1.03
2023-11-10T05:30:50.714Z,1.40
2023-11-10T05:33:18.680Z,1.67
2023-11-10T05:35:46.293Z,1.10
2023-11-10T05:38:13.854Z,1.00
2023-11-10T05:40:41.448Z,1.60
2023-11-10T05:43:10.052Z,1.30
2023-11-10T05:45:38.357Z,1.30
2023-11-10T05:48:06.560Z,1.23
2023-11-10T05:50:34.045Z,1.70
2023-11-10T05:53:02.710Z,1.27
2023-11-10T05:55:30.156Z,1.37
2023-11-10T05:58:00.601Z,1.00
2023-11-10T06:00:28.989Z,1.75
2023-11-10T06:02:58.233Z,1.20
2023-11-10T06:05:27.041Z,1.50
2023-11-10T06:07:55.956Z,1.33
2023-11-10T06:10:24.335Z,1.10
2023-11-10T06:12:52.646Z,1.30
2023-11-10T06:15:24.436Z,2.60
2023-11-10T06:17:53.239Z,1.20
2023-11-10T06:20:21.929Z,1.33
2023-11-10T06:22:49.765Z,1.53
2023-11-10T06:25:17.659Z,1.17
2023-11-10T06:27:45.465Z,1.30
2023-11-10T06:30:13.245Z,1.10
2023-11-10T06:32:40.963Z,1.40
2023-11-10T06:35:10.378Z,1.70
2023-11-10T06:37:38.014Z,1.27
2023-11-10T06:40:06.814Z,2.47
2023-11-10T06:42:35.306Z,1.47
2023-11-10T06:45:03.933Z,1.40
2023-11-10T06:47:36.182Z,1.63
2023-11-10T06:50:11.459Z,1.30
2023-11-10T06:52:40.757Z,1.70
2023-11-10T06:55:14.490Z,1.20
2023-11-10T06:57:42.229Z,1.50
2023-11-10T07:00:11.322Z,1.20
2023-11-10T07:02:39.136Z,2.10
2023-11-10T07:05:08.665Z,3.77
2023-11-10T07:07:36.328Z,1.73
2023-11-10T07:10:05.227Z,1.57
2023-11-10T07:12:33.765Z,1.23
2023-11-10T07:18:57.141Z,1.43
2023-11-10T07:21:26.365Z,1.73
2023-11-10T07:23:54.002Z,1.70
2023-11-10T07:26:21.982Z,1.90
2023-11-10T07:28:49.516Z,1.30
2023-11-10T07:31:17.123Z,1.20
2023-11-10T07:33:44.913Z,1.40
2023-11-10T07:36:13.623Z,1.53
2023-11-10T07:38:41.473Z,1.80
2023-11-10T07:41:08.988Z,1.70
2023-11-10T07:43:36.482Z,2.10
2023-11-10T07:46:06.047Z,2.77
2023-11-10T07:48:37.050Z,2.33
2023-11-10T07:51:04.883Z,2.10
2023-11-10T07:53:32.874Z,2.07
2023-11-10T07:56:01.815Z,2.00
2023-11-10T07:58:29.512Z,2.00
2023-11-10T08:00:57.189Z,2.30
2023-11-10T08:03:27.488Z,2.03
2023-11-10T08:05:55.308Z,1.70
2023-11-10T08:08:22.845Z,1.97
2023-11-10T08:10:50.401Z,2.07
2023-11-10T08:13:17.992Z,1.33
2023-11-10T08:15:47.592Z,1.70
2023-11-10T08:18:15.846Z,2.03
2023-11-10T08:20:43.876Z,2.07
2023-11-10T08:23:12.136Z,1.70
2023-11-10T08:25:39.818Z,1.87
2023-11-10T08:28:08.850Z,1.50
2023-11-10T08:30:37.313Z,2.83
2023-11-10T08:33:05.236Z,1.97
2023-11-10T08:35:32.786Z,2.07
2023-11-10T08:38:00.357Z,2.03
2023-11-10T08:40:28.082Z,1.73
2023-11-10T08:42:55.788Z,1.37
2023-11-10T08:45:25.517Z,1.50
2023-11-10T08:47:53.374Z,1.70
2023-11-10T08:50:20.958Z,1.97
2023-11-10T08:52:49.465Z,1.70
2023-11-10T08:55:22.181Z,1.70
2023-11-10T08:57:51.257Z,1.33
2023-11-10T09:00:19.364Z,1.70
2023-11-10T09:02:46.960Z,1.50
2023-11-10T09:05:15.618Z,1.57
2023-11-10T09:07:43.285Z,2.00
2023-11-10T09:10:13.908Z,1.57
2023-11-10T09:12:42.465Z,1.83
2023-11-10T09:15:13.245Z,1.57
2023-11-10T09:17:41.009Z,2.30
2023-11-10T09:20:10.880Z,1.43
2023-11-10T09:22:39.952Z,2.00
2023-11-10T09:25:10.691Z,1.87
2023-11-10T09:27:38.313Z,2.00
2023-11-10T09:30:06.193Z,1.53
2023-11-10T09:32:33.658Z,1.97
2023-11-10T09:35:01.221Z,2.10
2023-11-10T09:37:28.673Z,1.80
2023-11-10T09:40:02.689Z,2.13
2023-11-10T09:42:30.515Z,1.77
2023-11-10T09:44:59.391Z,2.20
2023-11-10T09:47:27.751Z,2.23
2023-11-10T09:49:55.277Z,1.67
2023-11-10T09:52:23.851Z,1.80
2023-11-10T09:54:53.273Z,1.90
2023-11-10T09:57:25.179Z,1.90
2023-11-10T09:59:54.670Z,1.63
2023-11-10T10:02:22.992Z,2.13
2023-11-10T10:04:50.625Z,1.83
2023-11-10T10:07:18.628Z,2.30
2023-11-10T10:09:47.580Z,1.30
2023-11-10T10:12:15.638Z,1.93
2023-11-10T10:14:54.365Z,2.30
2023-11-10T10:17:31.508Z,2.27
2023-11-10T10:20:15.454Z,1.70
2023-11-10T10:22:46.123Z,1.70
2023-11-10T10:25:14.322Z,1.63
2023-11-10T10:27:42.595Z,1.60
2023-11-10T10:30:10.850Z,2.00
2023-11-10T10:32:38.571Z,1.87
2023-11-10T10:35:08.460Z,2.27
2023-11-10T10:37:37.121Z,2.50
2023-11-10T10:40:06.830Z,2.50
2023-11-10T10:42:35.734Z,2.40
2023-11-10T10:45:05.215Z,2.83
2023-11-10T10:47:39.356Z,2.30
2023-11-10T10:50:11.539Z,2.77
2023-11-10T10:52:39.290Z,3.80
2023-11-10T10:55:07.732Z,2.50
2023-11-10T10:57:36.152Z,2.87
2023-11-10T11:00:07.491Z,2.40
2023-11-10T11:02:36.135Z,2.20
2023-11-10T11:05:10.153Z,2.30
2023-11-10T11:07:50.594Z,2.30
2023-11-10T11:10:24.807Z,2.27
2023-11-10T11:12:55.344Z,2.20
2023-11-10T11:15:47.262Z,2.20
2023-11-10T11:18:19.019Z,2.27
2023-11-10T11:20:48.090Z,2.07
2023-11-10T11:23:16.217Z,1.70
2023-11-10T11:25:44.077Z,2.13
2023-11-10T11:28:11.680Z,1.80
2023-11-10T11:30:39.801Z,1.97
2023-11-10T11:33:12.986Z,1.70
2023-11-10T11:35:45.326Z,1.30
2023-11-10T11:38:12.985Z,1.90
2023-11-10T11:40:44.224Z,1.73
2023-11-10T11:43:11.821Z,1.30
2023-11-10T11:45:40.878Z,1.77
2023-11-10T11:48:10.747Z,1.10
2023-11-10T11:50:38.851Z,1.87
2023-11-10T11:53:08.870Z,2.00
2023-11-10T11:55:37.216Z,1.30
2023-11-10T11:58:05.743Z,1.10
2023-11-10T12:00:33.391Z,1.30
2023-11-10T12:03:01.018Z,1.40
2023-11-10T12:05:31.421Z,1.60
2023-11-10T12:07:59.064Z,1.47
2023-11-10T12:10:26.612Z,0.83
2023-11-10T12:12:56.861Z,1.20
2023-11-10T12:15:26.932Z,1.17
2023-11-10T12:17:54.819Z,1.53
2023-11-10T12:20:24.164Z,1.80
2023-11-10T12:22:56.932Z,1.17
2023-11-10T12:25:27.843Z,1.37
2023-11-10T12:27:56.584Z,1.30
2023-11-10T12:30:25.154Z,1.57
2023-11-10T12:32:54.181Z,1.40
2023-11-10T12:35:22.191Z,1.27
2023-11-10T12:37:53.145Z,1.13
2023-11-10T12:40:20.700Z,1.10
2023-11-10T12:42:48.602Z,0.90
2023-11-10T12:45:17.414Z,0.97
2023-11-10T12:47:53.942Z,1.50
2023-11-10T12:50:29.669Z,1.10
2023-11-10T12:52:58.271Z,1.40
2023-11-10T12:55:25.980Z,1.13
2023-11-10T12:57:53.831Z,1.10
2023-11-10T13:00:21.713Z,1.23
2023-11-10T13:02:50.377Z,1.30
2023-11-10T13:05:21.237Z,1.30
2023-11-10T13:07:48.770Z,1.10
2023-11-10T13:10:16.424Z,1.30
2023-11-10T13:12:43.912Z,1.43
2023-11-10T13:15:11.864Z,1.10
2023-11-10T13:17:39.507Z,1.27
2023-11-10T13:20:10.242Z,1.13
2023-11-10T13:22:38.195Z,0.90
2023-11-10T13:25:06.834Z,1.70
2023-11-10T13:27:34.483Z,1.37
2023-11-10T13:30:02.340Z,1.87
2023-11-10T13:32:31.382Z,1.33
2023-11-10T13:35:05.277Z,1.60
2023-11-10T13:37:32.845Z,1.30
2023-11-10T13:40:00.395Z,1.30
2023-11-10T13:42:28.014Z,1.40
2023-11-10T13:44:55.930Z,1.53
2023-11-10T13:47:23.386Z,2.00
2023-11-10T13:49:50.898Z,1.70
2023-11-10T13:52:19.343Z,1.33
2023-11-10T13:54:47.488Z,1.13
2023-11-10T13:57:14.985Z,1.30
2023-11-10T13:59:42.601Z,1.87
2023-11-10T14:02:10.227Z,1.33
2023-11-10T14:04:39.452Z,1.80
2023-11-10T14:07:08.420Z,1.43
2023-11-10T14:09:36.469Z,1.17
2023-11-10T14:12:04.200Z,1.30
2023-11-10T14:14:35.602Z,1.60
2023-11-10T14:17:12.157Z,9.30
2023-11-10T14:19:40.154Z,2.10
2023-11-10T14:22:11.979Z,1.40
2023-11-10T14:24:41.782Z,1.93
2023-11-10T14:27:09.846Z,1.80
2023-11-10T14:29:42.267Z,1.57
2023-11-10T14:32:10.980Z,1.60
2023-11-10T14:34:43.804Z,1.47
2023-11-10T14:37:11.675Z,1.80
2023-11-10T14:39:39.765Z,1.70
2023-11-10T14:42:07.672Z,1.37
2023-11-10T14:44:36.853Z,1.53
2023-11-10T14:47:12.457Z,1.20
2023-11-10T14:49:47.805Z,1.20
2023-11-10T14:52:16.589Z,1.70
2023-11-10T14:54:47.508Z,1.20
2023-11-10T14:57:15.480Z,1.50
2023-11-10T14:59:43.893Z,1.40
2023-11-10T15:02:12.977Z,1.40
2023-11-10T15:04:45.963Z,1.30
2023-11-10T15:07:14.493Z,1.10
2023-11-10T15:09:47.147Z,1.30
2023-11-10T15:12:15.082Z,1.30
2023-11-10T15:14:42.749Z,1.40
2023-11-10T15:17:12.029Z,1.30
2023-11-10T15:19:42.634Z,1.20
2023-11-10T15:22:10.999Z,1.90
2023-11-10T15:24:38.931Z,1.50
2023-11-10T15:27:07.209Z,1.43
2023-11-10T15:29:34.676Z,2.07
2023-11-10T15:32:06.011Z,1.80
2023-11-10T15:34:35.939Z,2.10
2023-11-10T15:37:07.257Z,1.73
2023-11-10T15:39:39.884Z,2.37
2023-11-10T15:42:07.965Z,2.20
2023-11-10T15:44:35.546Z,2.40
2023-11-10T15:47:03.496Z,2.27
2023-11-10T15:49:31.161Z,1.97
2023-11-10T15:51:58.727Z,1.97
2023-11-10T15:54:29.986Z,3.03
2023-11-10T15:57:00.002Z,4.03
2023-11-10T15:59:27.760Z,2.10
2023-11-10T16:01:55.788Z,2.27
2023-11-10T16:04:23.992Z,2.87
2023-11-10T16:06:54.703Z,2.63
2023-11-10T16:09:30.252Z,3.77
2023-11-10T16:12:00.932Z,3.30
2023-11-10T16:14:28.429Z,3.43
2023-11-10T16:16:56.204Z,3.17
2023-11-10T16:19:24.759Z,3.87
2023-11-10T16:21:52.595Z,3.03
2023-11-10T16:24:20.278Z,2.47
2023-11-10T16:26:49.109Z,2.57
2023-11-10T16:29:17.042Z,2.33
2023-11-10T16:31:45.155Z,3.93
2023-11-10T16:34:12.686Z,3.63
2023-11-10T16:36:40.232Z,2.40
2023-11-10T16:39:07.831Z,2.67
2023-11-10T16:41:37.600Z,4.40
2023-11-10T16:44:07.313Z,3.40
2023-11-10T16:46:35.374Z,4.17
2023-11-10T16:49:03.197Z,4.50
2023-11-10T16:51:31.779Z,3.70
2023-11-10T16:53:59.848Z,2.90
2023-11-10T16:56:30.676Z,2.40
2023-11-10T16:58:58.578Z,4.87
2023-11-10T17:01:26.579Z,2.40
2023-11-10T17:03:54.396Z,1.80
2023-11-10T17:06:22.293Z,1.63
2023-11-10T17:08:49.863Z,2.00
2023-11-10T17:11:19.606Z,1.97
2023-11-10T17:13:47.309Z,2.07
2023-11-10T17:16:14.861Z,1.63
2023-11-10T17:18:42.873Z,1.40
2023-11-10T17:21:10.621Z,1.73
2023-11-10T17:23:38.111Z,2.17
2023-11-10T17:26:05.999Z,2.67
2023-11-10T17:28:33.650Z,1.63
2023-11-10T17:31:01.439Z,2.00
2023-11-10T17:33:29.199Z,1.93
2023-11-10T17:35:56.737Z,2.90
2023-11-10T17:38:25.280Z,2.60
2023-11-10T17:40:52.934Z,2.83
2023-11-10T17:43:20.625Z,1.70
2023-11-10T17:45:50.760Z,2.50
2023-11-10T17:48:18.519Z,2.57
2023-11-10T17:50:46.528Z,2.97
2023-11-10T17:53:14.942Z,2.57
2023-11-10T17:55:42.774Z,3.70
2023-11-10T17:58:10.721Z,4.40
2023-11-10T18:00:38.843Z,2.23
2023-11-10T18:03:06.776Z,2.10
2023-11-10T18:05:34.540Z,2.50
2023-11-10T18:08:02.236Z,2.77
2023-11-10T18:10:30.137Z,2.77
2023-11-10T18:12:57.849Z,2.30
2023-11-10T18:15:25.512Z,2.30
2023-11-10T18:17:53.145Z,2.77
2023-11-10T18:20:21.565Z,3.60
2023-11-10T18:22:49.301Z,6.03
2023-11-10T18:25:17.368Z,2.80
2023-11-10T18:27:44.992Z,2.37
2023-11-10T18:30:13.159Z,2.50
2023-11-10T18:32:40.866Z,3.35
2023-11-10T18:35:12.067Z,4.63
2023-11-10T18:37:39.743Z,3.37
2023-11-10T18:40:07.924Z,2.77
2023-11-10T18:42:35.770Z,3.50
2023-11-10T18:45:04.281Z,5.73
2023-11-10T18:47:32.081Z,3.70
2023-11-10T18:50:00.436Z,3.30
2023-11-10T18:52:30.017Z,3.47
2023-11-10T18:54:58.146Z,3.13
2023-11-10T18:57:25.762Z,2.73
2023-11-10T18:59:53.425Z,3.73
2023-11-10T19:02:22.887Z,3.83
2023-11-10T19:04:52.064Z,3.80
2023-11-10T19:07:19.832Z,3.97
2023-11-10T19:09:48.306Z,4.90
2023-11-10T19:12:16.360Z,3.43
2023-11-10T19:14:46.274Z,3.60
2023-11-10T19:17:18.120Z,3.10
2023-11-10T19:19:45.919Z,3.77
2023-11-10T19:22:13.517Z,4.47
2023-11-10T19:24:41.277Z,3.57
2023-11-10T19:27:09.153Z,3.13
2023-11-10T19:29:36.816Z,3.60
2023-11-10T19:32:06.193Z,2.97
2023-11-10T19:34:34.072Z,4.07
2023-11-10T19:37:01.759Z,4.00
2023-11-10T19:39:30.686Z,5.57
2023-11-10T19:42:00.442Z,4.63
2023-11-10T19:44:28.501Z,2.97
2023-11-10T19:46:56.184Z,3.17
2023-11-10T19:49:23.798Z,2.80
2023-11-10T19:56:53.463Z,3.50
2023-11-10T19:59:23.702Z,3.60
2023-11-10T20:01:52.889Z,3.30
2023-11-10T20:04:20.608Z,3.10
2023-11-10T20:06:48.237Z,2.90
2023-11-10T20:09:16.696Z,3.40
2023-11-10T20:11:45.140Z,2.87
2023-11-10T20:14:15.405Z,2.53
2023-11-10T20:16:43.022Z,3.13
2023-11-10T20:19:13.827Z,3.37
2023-11-10T20:21:41.587Z,2.80
2023-11-10T20:24:09.781Z,3.23
2023-11-10T20:26:37.586Z,4.30
2023-11-10T20:29:05.683Z,3.00
2023-11-10T20:31:36.009Z,3.00
2023-11-10T20:34:13.780Z,3.47
2023-11-10T20:36:41.456Z,3.03
2023-11-10T20:39:09.321Z,3.67
2023-11-10T20:41:37.251Z,3.10
2023-11-10T20:44:05.480Z,3.37
2023-11-10T20:46:35.325Z,2.77
2023-11-10T20:49:03.158Z,2.50
2023-11-10T20:51:30.969Z,2.63
2023-11-10T20:53:58.699Z,2.90
2023-11-10T20:56:27.173Z,2.90
2023-11-10T20:58:54.838Z,3.57
2023-11-10T21:01:23.852Z,3.83
2023-11-10T21:03:54.306Z,2.80
2023-11-10T21:06:22.144Z,3.00
2023-11-10T21:08:50.053Z,2.57
2023-11-10T21:11:17.756Z,3.13
2023-11-10T21:13:45.460Z,2.20
2023-11-10T21:16:14.417Z,2.40
2023-11-10T21:18:42.096Z,7.40
2023-11-10T21:21:14.490Z,3.23
2023-11-10T21:23:42.256Z,3.77
2023-11-10T21:26:10.771Z,2.20
2023-11-10T21:28:39.038Z,4.03
2023-11-10T21:31:06.790Z,2.67
2023-11-10T21:33:34.595Z,2.20
2023-11-10T21:36:02.331Z,3.63
2023-11-10T21:38:30.078Z,2.57
2023-11-10T21:40:57.725Z,2.33
2023-11-10T21:43:25.379Z,4.07
2023-11-10T21:45:55.176Z,3.07
2023-11-10T21:48:22.847Z,1.73
2023-11-10T21:50:50.699Z,2.07
2023-11-10T21:53:18.229Z,2.30
2023-11-10T21:55:47.370Z,2.37
2023-11-10T21:58:18.523Z,1.97
2023-11-10T22:00:47.279Z,1.90
2023-11-10T22:03:15.617Z,1.97
2023-11-10T22:05:43.325Z,2.13
2023-11-10T22:08:10.828Z,2.27
2023-11-10T22:10:38.593Z,2.37
2023-11-10T22:13:06.232Z,2.17
2023-11-10T22:15:33.836Z,2.27
2023-11-10T22:18:01.738Z,2.00
2023-11-10T22:20:29.572Z,2.13
2023-11-10T22:22:57.127Z,2.00
2023-11-10T22:25:26.590Z,2.30
2023-11-10T22:27:57.718Z,1.90
2023-11-10T22:30:27.014Z,2.03
2023-11-10T22:32:54.518Z,2.27
2023-11-10T22:35:22.067Z,2.00
2023-11-10T22:37:49.733Z,2.33
2023-11-10T22:40:19.556Z,1.93
2023-11-10T22:42:48.361Z,2.00
2023-11-10T22:45:17.803Z,2.03
2023-11-10T22:47:50.113Z,3.20
2023-11-10T22:50:18.954Z,2.77
2023-11-10T22:52:49.279Z,1.97
2023-11-10T22:55:17.991Z,2.40
2023-11-10T22:57:46.643Z,3.93
2023-11-10T23:00:34.755Z,2.47
2023-11-10T23:03:05.715Z,2.60
2023-11-10T23:05:33.920Z,2.37
2023-11-10T23:08:03.941Z,2.30
2023-11-10T23:10:32.122Z,2.37
2023-11-10T23:13:00.624Z,2.80
2023-11-10T23:15:28.498Z,2.20
2023-11-10T23:17:57.604Z,2.87
2023-11-10T23:20:33.353Z,2.57
2023-11-10T23:23:03.414Z,2.30
2023-11-10T23:25:31.208Z,2.50
2023-11-10T23:27:58.893Z,2.60
2023-11-10T23:30:29.029Z,3.03
2023-11-10T23:32:56.672Z,2.50
2023-11-10T23:35:24.228Z,2.70
2023-11-10T23:37:51.990Z,2.50
2023-11-10T23:40:23.630Z,3.30
2023-11-10T23:42:53.754Z,2.70
2023-11-10T23:45:21.507Z,2.10
2023-11-10T23:47:49.315Z,3.10
2023-11-10T23:50:16.952Z,3.07
2023-11-10T23:52:47.061Z,2.77
2023-11-10T23:55:14.912Z,3.00
2023-11-10T23:57:42.679Z,3.00
